Time;durP1;ratioP1;P1;durP2;ratioP2;P2;SDS_P1;SDS_P2;PMS_P1;PMS_P2;Temp;Humidity;BMP_temperature;BMP_pressure;BME280_temperature;BME280_humidity;BME280_pressure;Samples;Min_cycle;Max_cycle;Signal;HPM_P1;HPM_P2
2021/12/15 00:03:52;;;;;;;38.45;19.42;;;;;;;3.80;100.00;99608.06;10479120;28;20075;-82
2021/12/15 00:08:59;;;;;;;41.47;19.80;;;;;;;3.81;100.00;99605.31;10476936;28;20143;-82
2021/12/15 00:14:03;;;;;;;41.05;18.95;;;;;;;3.81;100.00;99613.28;10463618;28;20525;-81
2021/12/15 00:19:08;;;;;;;38.55;18.40;;;;;;;3.81;100.00;99610.63;10464046;28;20045;-81
2021/12/15 00:24:11;;;;;;;37.05;18.20;;;;;;;3.85;100.00;99598.84;10472349;28;20055;-80
2021/12/15 00:29:14;;;;;;;34.08;17.40;;;;;;;3.85;100.00;99597.97;10478095;28;20570;-80
2021/12/15 00:34:20;;;;;;;29.33;16.05;;;;;;;3.87;100.00;99597.91;10473048;28;20063;-81
2021/12/15 00:39:23;;;;;;;27.90;15.13;;;;;;;3.88;100.00;99599.63;10456011;28;20136;-81
2021/12/15 00:44:27;;;;;;;27.27;14.88;;;;;;;3.90;100.00;99601.25;10462652;28;20059;-82
2021/12/15 00:49:32;;;;;;;26.95;14.93;;;;;;;3.90;100.00;99608.38;10483878;28;20112;-82
2021/12/15 00:54:37;;;;;;;23.42;14.40;;;;;;;3.93;100.00;99606.41;10487986;28;20045;-80
2021/12/15 00:59:41;;;;;;;25.73;14.85;;;;;;;3.88;100.00;99613.81;10480000;28;20136;-83
2021/12/15 01:04:48;;;;;;;26.63;15.15;;;;;;;3.87;100.00;99612.09;10474794;28;20052;-82
2021/12/15 01:09:56;;;;;;;27.90;15.52;;;;;;;3.82;100.00;99620.34;10478437;28;20112;-83
2021/12/15 01:20:32;;;;;;;29.08;16.00;;;;;;;3.79;100.00;99619.69;10475280;28;20056;-79
2021/12/15 01:25:38;;;;;;;25.70;15.50;;;;;;;3.76;100.00;99623.38;10470588;28;20064;-82
2021/12/15 01:30:44;;;;;;;26.23;14.93;;;;;;;3.76;100.00;99636.72;10469894;28;20519;-80
2021/12/15 01:35:51;;;;;;;24.80;14.48;;;;;;;3.78;100.00;99633.94;10489670;28;20119;-80
2021/12/15 01:40:54;;;;;;;27.92;13.98;;;;;;;3.79;100.00;99622.34;10469786;28;20899;-81
2021/12/15 01:51:22;;;;;;;24.27;14.15;;;;;;;3.83;100.00;99627.41;10471691;28;20080;-80
2021/12/15 01:56:26;;;;;;;22.33;13.57;;;;;;;3.84;100.00;99629.13;10483172;28;20040;-81
2021/12/15 02:01:29;;;;;;;22.95;13.82;;;;;;;3.87;100.00;99624.56;10467343;28;20052;-80
2021/12/15 02:06:34;;;;;;;25.30;14.27;;;;;;;3.88;100.00;99620.97;10481365;28;20066;-80
2021/12/15 02:11:37;;;;;;;26.05;14.32;;;;;;;3.91;100.00;99634.97;10486067;28;20111;-80
2021/12/15 02:16:41;;;;;;;26.15;14.23;;;;;;;3.93;100.00;99632.19;10465974;28;20040;-80
2021/12/15 02:21:49;;;;;;;25.30;14.32;;;;;;;3.96;100.00;99632.88;10472017;28;20075;-79
2021/12/15 02:26:58;;;;;;;23.60;13.48;;;;;;;3.96;100.00;99634.69;10486037;28;20358;-80
2021/12/15 02:32:13;;;;;;;22.80;12.82;;;;;;;3.98;100.00;99636.31;10496292;28;20070;-80
2021/12/15 02:37:18;;;;;;;23.92;12.88;;;;;;;4.01;100.00;99635.25;10486373;28;20036;-78
2021/12/15 02:42:23;;;;;;;16.50;10.52;;;;;;;4.06;100.00;99640.34;10469756;28;20041;-79
2021/12/15 02:47:31;;;;;;;19.52;11.40;;;;;;;4.08;100.00;99646.44;10486775;28;20060;-79
2021/12/15 02:52:36;;;;;;;15.20;9.95;;;;;;;4.12;100.00;99654.16;10487158;28;20131;-79
2021/12/15 02:57:40;;;;;;;17.75;9.98;;;;;;;4.12;100.00;99646.16;10483083;28;20060;-80
2021/12/15 03:08:09;;;;;;;13.45;9.02;;;;;;;4.14;100.00;99656.75;10484284;28;20432;-79
2021/12/15 03:18:34;;;;;;;12.68;8.48;;;;;;;4.13;100.00;99639.88;10487467;28;20564;-81
2021/12/15 03:23:49;;;;;;;14.00;8.93;;;;;;;4.18;100.00;99639.59;10466819;28;20493;-80
2021/12/15 03:34:39;;;;;;;12.93;8.80;;;;;;;4.22;100.00;99632.31;10457151;28;20138;-79
2021/12/15 03:39:45;;;;;;;13.30;8.60;;;;;;;4.23;100.00;99636.69;10488078;28;20043;-79
2021/12/15 03:44:50;;;;;;;13.77;8.95;;;;;;;4.25;100.00;99632.97;10491243;28;20123;-80
2021/12/15 03:49:55;;;;;;;12.57;8.90;;;;;;;4.26;100.00;99641.84;10469975;28;20267;-79
2021/12/15 03:54:59;;;;;;;11.75;7.90;;;;;;;4.28;100.00;99647.94;10475340;28;20135;-79
2021/12/15 04:00:03;;;;;;;12.05;8.27;;;;;;;4.28;100.00;99656.81;10484646;28;20087;-81
2021/12/15 04:05:16;;;;;;;13.37;8.40;;;;;;;4.30;100.00;99657.56;10486748;28;20115;-79
2021/12/15 04:10:23;;;;;;;12.90;7.97;;;;;;;4.31;100.00;99661.94;10481705;28;20463;-79
2021/12/15 04:15:29;;;;;;;12.68;8.35;;;;;;;4.30;100.00;99662.06;10487888;28;20123;-80
2021/12/15 04:20:37;;;;;;;13.20;7.97;;;;;;;4.32;100.00;99658.34;10500630;28;20032;-81
2021/12/15 04:25:42;;;;;;;12.80;8.18;;;;;;;4.32;100.00;99660.16;10487302;28;20060;-79
2021/12/15 04:30:48;;;;;;;11.57;7.93;;;;;;;4.32;100.00;99661.00;10469077;28;20067;-86
2021/12/15 04:35:54;;;;;;;14.35;8.68;;;;;;;4.31;100.00;99653.94;10472573;28;20055;-83
2021/12/15 04:41:01;;;;;;;14.35;8.65;;;;;;;4.32;100.00;99657.50;10475203;28;20036;-84
2021/12/15 04:46:08;;;;;;;14.15;8.48;;;;;;;4.32;100.00;99663.66;10495426;28;20044;-80
2021/12/15 04:51:11;;;;;;;13.13;8.18;;;;;;;4.31;100.00;99674.44;10477522;28;20048;-82
2021/12/15 04:56:17;;;;;;;12.63;7.65;;;;;;;4.32;100.00;99676.16;10506504;28;20040;-83
2021/12/15 05:01:22;;;;;;;12.68;8.35;;;;;;;4.31;100.00;99674.44;10496311;28;20047;-82
2021/12/15 05:06:26;;;;;;;12.57;7.95;;;;;;;4.32;100.00;99679.69;10506151;28;20076;-82
2021/12/15 05:11:30;;;;;;;13.57;8.75;;;;;;;4.36;100.00;99684.84;10481344;28;20092;-84
2021/12/15 05:16:35;;;;;;;12.15;8.25;;;;;;;4.35;100.00;99686.63;10481501;28;20066;-82
2021/12/15 05:21:39;;;;;;;14.68;9.07;;;;;;;4.35;100.00;99689.31;10504133;28;20049;-81
2021/12/15 05:26:44;;;;;;;13.93;8.23;;;;;;;4.32;100.00;99693.03;10490223;28;20304;-84
2021/12/15 05:31:50;;;;;;;13.10;8.68;;;;;;;4.32;100.00;99689.50;10493386;28;20394;-80
2021/12/15 05:36:54;;;;;;;11.93;7.97;;;;;;;4.32;100.00;99697.50;10472523;28;20140;-79
2021/12/15 05:41:59;;;;;;;13.07;8.52;;;;;;;4.31;100.00;99699.31;10456997;28;20046;-79
2021/12/15 05:47:04;;;;;;;10.93;7.50;;;;;;;4.34;100.00;99705.41;10476986;28;20083;-78
2021/12/15 05:52:08;;;;;;;11.93;7.72;;;;;;;4.34;100.00;99700.06;10479922;28;20060;-79
2021/12/15 05:57:13;;;;;;;11.45;7.57;;;;;;;4.32;100.00;99709.03;10475284;28;20045;-78
2021/12/15 06:02:16;;;;;;;9.88;6.95;;;;;;;4.36;100.00;99714.19;10476195;28;20052;-78
2021/12/15 06:07:19;;;;;;;11.63;8.10;;;;;;;4.31;100.00;99723.31;10475482;28;20048;-78
2021/12/15 06:12:24;;;;;;;10.60;7.60;;;;;;;4.35;100.00;99733.81;10477263;28;20143;-78
2021/12/15 06:17:28;;;;;;;13.55;8.25;;;;;;;4.34;100.00;99726.75;10458126;28;20041;-78
2021/12/15 06:22:33;;;;;;;11.65;7.35;;;;;;;4.35;100.00;99733.81;10478092;28;20040;-79
2021/12/15 06:27:40;;;;;;;10.60;7.20;;;;;;;4.35;100.00;99749.81;10482425;28;20044;-80
2021/12/15 06:32:44;;;;;;;12.30;7.57;;;;;;;4.36;100.00;99743.53;10490201;28;20068;-80
2021/12/15 06:37:47;;;;;;;12.02;7.70;;;;;;;4.37;100.00;99745.25;10488860;28;20044;-80
2021/12/15 06:42:52;;;;;;;10.10;7.07;;;;;;;4.35;100.00;99744.50;10470906;28;20058;-81
2021/12/15 06:58:39;;;;;;;9.80;7.07;;;;;;;4.36;100.00;99756.88;10481963;28;20029;-80
2021/12/15 07:03:42;;;;;;;13.25;8.15;;;;;;;4.36;100.00;99767.56;10476626;28;20732;-79
2021/12/15 07:08:45;;;;;;;11.88;8.07;;;;;;;4.35;100.00;99761.34;10466310;28;20136;-82
2021/12/15 07:13:50;;;;;;;14.13;7.93;;;;;;;4.35;100.00;99763.16;10432686;28;20053;-79
2021/12/15 07:19:05;;;;;;;19.95;8.80;;;;;;;4.37;100.00;99759.44;10451621;28;20033;-79
2021/12/15 07:24:09;;;;;;;13.48;9.02;;;;;;;4.40;100.00;99763.78;10449148;28;20084;-79
2021/12/15 07:29:13;;;;;;;16.30;9.82;;;;;;;4.42;100.00;99769.84;10452009;28;20048;-81
2021/12/15 07:34:16;;;;;;;15.38;9.88;;;;;;;4.45;100.00;99769.69;10434336;28;21377;-80
2021/12/15 07:39:19;;;;;;;14.68;9.32;;;;;;;4.44;100.00;99774.19;10451596;28;20506;-79
2021/12/15 07:44:24;;;;;;;15.43;8.95;;;;;;;4.50;100.00;99777.44;10431065;28;20049;-81
2021/12/15 07:49:29;;;;;;;14.32;8.40;;;;;;;4.49;100.00;99781.91;10430248;28;20052;-79
2021/12/15 07:54:35;;;;;;;16.17;8.77;;;;;;;4.52;100.00;99786.22;10452751;28;20045;-81
2021/12/15 07:59:40;;;;;;;14.32;9.30;;;;;;;4.55;100.00;99783.38;10455740;28;20639;-79
2021/12/15 08:04:43;;;;;;;16.70;9.10;;;;;;;4.57;100.00;99797.50;10456136;28;20044;-80
2021/12/15 08:09:49;;;;;;;16.98;8.90;;;;;;;4.61;100.00;99793.69;10479458;28;20042;-81
2021/12/15 08:14:54;;;;;;;12.93;8.45;;;;;;;4.65;100.00;99787.22;10490966;28;20060;-78
2021/12/15 08:19:57;;;;;;;12.75;8.65;;;;;;;4.70;100.00;99803.84;10494392;28;20382;-79
2021/12/15 08:25:01;;;;;;;14.05;8.40;;;;;;;4.70;100.00;99793.16;10470811;28;20049;-77
2021/12/15 08:30:08;;;;;;;13.40;7.68;;;;;;;4.75;100.00;99800.91;10493670;28;20044;-79
2021/12/15 08:35:11;;;;;;;14.02;7.82;;;;;;;4.78;100.00;99804.25;10489920;28;20048;-79
2021/12/15 08:40:18;;;;;;;15.73;8.13;;;;;;;4.80;100.00;99796.13;10487529;28;20113;-77
2021/12/15 08:45:28;;;;;;;14.00;8.40;;;;;;;4.85;100.00;99799.41;10488051;28;20052;-79
2021/12/15 08:50:39;;;;;;;13.85;8.07;;;;;;;4.86;100.00;99801.13;10489341;28;20115;-78
2021/12/15 08:55:44;;;;;;;11.57;7.82;;;;;;;4.92;100.00;99805.25;10485625;28;20048;-80
2021/12/15 09:00:53;;;;;;;10.48;7.47;;;;;;;4.96;100.00;99820.13;10488588;28;20045;-79
2021/12/15 09:05:59;;;;;;;12.95;8.07;;;;;;;5.01;100.00;99815.38;10489637;28;20044;-81
2021/12/15 09:11:09;;;;;;;12.82;7.68;;;;;;;5.03;100.00;99813.47;10474933;28;20053;-81
2021/12/15 09:16:15;;;;;;;12.18;7.63;;;;;;;5.09;100.00;99820.25;10491186;28;20060;-81
2021/12/15 09:21:20;;;;;;;14.60;8.60;;;;;;;5.13;100.00;99820.94;10477387;28;20044;-80
2021/12/15 09:26:24;;;;;;;15.10;8.48;;;;;;;5.19;100.00;99818.75;10465154;28;20044;-80
2021/12/15 09:31:28;;;;;;;13.55;7.57;;;;;;;5.22;100.00;99820.38;10472325;28;20484;-80
2021/12/15 09:36:32;;;;;;;16.88;8.60;;;;;;;5.23;100.00;99825.63;10470932;28;20044;-78
2021/12/15 09:41:35;;;;;;;13.85;8.55;;;;;;;5.28;100.00;99829.84;10467854;28;20493;-78
2021/12/15 09:47:05;;;;;;;14.20;8.43;;;;;;;5.34;100.00;99830.31;10485280;28;20049;-79
2021/12/15 10:01:55;;;;;;;12.35;7.55;;;;;;;5.43;100.00;99828.91;10440396;28;20049;-79
2021/12/15 10:03:21;;;;;;;12.80;8.00;;;;;;;5.48;100.00;99821.44;10486337;28;20100;-79
2021/12/15 10:19:18;;;;;;;11.77;7.60;;;;;;;5.73;100.00;99814.59;10465848;28;20067;-79
2021/12/15 10:24:27;;;;;;;10.93;6.80;;;;;;;5.74;100.00;99816.31;10463272;28;20055;-80
2021/12/15 10:29:30;;;;;;;10.43;7.50;;;;;;;5.82;100.00;99814.00;10463893;28;20040;-81
2021/12/15 10:34:35;;;;;;;11.73;7.00;;;;;;;5.91;100.00;99817.91;10487351;28;20032;-78
2021/12/15 10:39:38;;;;;;;11.57;7.28;;;;;;;5.98;100.00;99815.72;10479245;28;20040;-80
2021/12/15 10:44:41;;;;;;;10.35;6.70;;;;;;;6.07;100.00;99823.19;10478076;28;20545;-78
2021/12/15 10:49:46;;;;;;;12.80;7.10;;;;;;;6.13;100.00;99814.78;10481261;28;20048;-79
2021/12/15 10:54:54;;;;;;;10.00;6.63;;;;;;;6.19;100.00;99816.19;10478827;28;20048;-81
2021/12/15 11:00:01;;;;;;;12.63;7.82;;;;;;;6.27;100.00;99810.38;10488072;28;20029;-78
2021/12/15 11:05:16;;;;;;;15.82;10.55;;;;;;;6.39;100.00;99808.69;10470214;28;20041;-80
2021/12/15 11:10:26;;;;;;;12.75;7.18;;;;;;;6.47;100.00;99815.28;10476234;28;20058;-80
2021/12/15 11:15:31;;;;;;;12.05;8.15;;;;;;;6.59;100.00;99813.59;10473780;28;20097;-80
2021/12/15 11:20:39;;;;;;;12.98;7.07;;;;;;;6.67;100.00;99814.91;10463663;28;20563;-81
2021/12/15 11:25:47;;;;;;;9.38;6.28;;;;;;;6.74;100.00;99805.50;10469410;28;20056;-78
2021/12/15 11:30:58;;;;;;;8.40;5.95;;;;;;;6.92;100.00;99803.41;10457792;28;20055;-79
2021/12/15 11:36:06;;;;;;;7.68;5.28;;;;;;;7.02;100.00;99798.28;10468424;28;20048;-79
2021/12/15 11:41:13;;;;;;;7.97;5.25;;;;;;;7.12;100.00;99793.13;10467843;28;20060;-81
2021/12/15 11:46:28;;;;;;;7.68;5.40;;;;;;;7.08;100.00;99788.00;10472314;28;20120;-80
2021/12/15 11:51:42;;;;;;;10.10;5.47;;;;;;;7.16;100.00;99786.63;10472130;28;20401;-78
2021/12/15 11:56:47;;;;;;;6.82;5.07;;;;;;;7.14;100.00;99780.50;10455653;28;20064;-80
2021/12/15 12:01:57;;;;;;;7.80;4.65;;;;;;;7.25;100.00;99775.25;10486857;28;20044;-80
2021/12/15 12:07:24;;;;;;;8.30;5.07;;;;;;;7.35;100.00;99768.28;10480706;28;20044;-81
2021/12/15 12:12:34;;;;;;;15.63;4.68;;;;;;;7.42;100.00;99762.50;10465875;28;20049;-82
2021/12/15 12:17:39;;;;;;;8.75;5.05;;;;;;;7.46;100.00;99758.66;10480666;28;20049;-81
2021/12/15 12:22:45;;;;;;;7.38;5.28;;;;;;;7.53;100.00;99752.72;10470161;28;20056;-77
2021/12/15 12:27:49;;;;;;;6.60;4.22;;;;;;;7.56;100.00;99748.97;10449305;28;20051;-76
2021/12/15 12:32:54;;;;;;;6.28;4.45;;;;;;;7.58;100.00;99748.84;10461101;28;20571;-75
2021/12/15 12:38:00;;;;;;;6.35;3.88;;;;;;;7.63;100.00;99744.03;10439335;28;20055;-75
2021/12/15 12:43:17;;;;;;;8.82;4.50;;;;;;;7.66;100.00;99733.94;10441006;28;20541;-80
2021/12/15 12:48:40;;;;;;;9.05;4.30;;;;;;;7.67;100.00;99737.47;10474404;28;20539;-81
2021/12/15 12:59:25;;;;;;;6.57;3.90;;;;;;;7.70;100.00;99734.56;10477308;28;20043;-79
2021/12/15 13:04:44;;;;;;;7.30;3.40;;;;;;;7.71;100.00;99737.13;10485256;28;20105;-78
2021/12/15 13:09:51;;;;;;;5.53;3.63;;;;;;;7.71;100.00;99737.13;10469535;28;20060;-78
2021/12/15 13:14:59;;;;;;;4.53;3.50;;;;;;;7.71;100.00;99731.75;10475156;28;20047;-77
2021/12/15 13:20:21;;;;;;;4.78;3.63;;;;;;;7.73;100.00;99734.34;10458884;28;20406;-79
2021/12/15 13:30:50;;;;;;;5.55;3.83;;;;;;;7.69;100.00;99723.00;10475017;28;20029;-80
2021/12/15 13:35:56;;;;;;;4.70;3.75;;;;;;;7.71;100.00;99725.56;10459249;28;20143;-81
2021/12/15 13:41:24;;;;;;;7.70;3.85;;;;;;;7.68;100.00;99713.22;10475968;28;20068;-80
2021/12/15 13:46:35;;;;;;;16.35;3.80;;;;;;;7.70;100.00;99715.78;10459695;28;20060;-80
2021/12/15 13:52:11;;;;;;;6.30;3.45;;;;;;;7.68;100.00;99726.66;10481628;28;20055;-80
2021/12/15 13:57:21;;;;;;;7.90;3.30;;;;;;;7.70;100.00;99724.69;10490677;28;20040;-79
2021/12/15 14:02:29;;;;;;;3.45;2.10;;;;;;;7.68;100.00;99720.41;10476629;28;20159;-77
2021/12/15 14:07:39;;;;;;;3.33;2.47;;;;;;;7.69;100.00;99720.31;10479167;28;20060;-79
2021/12/15 14:12:56;;;;;;;4.32;2.33;;;;;;;7.68;100.00;99721.28;10481708;28;20049;-80
2021/12/15 14:18:02;;;;;;;3.80;2.55;;;;;;;7.65;100.00;99732.22;10458773;28;20044;-79
2021/12/15 14:23:09;;;;;;;4.35;2.20;;;;;;;7.65;100.00;99732.22;10479244;28;20105;-80
2021/12/15 14:28:16;;;;;;;3.10;2.20;;;;;;;7.64;100.00;99735.88;10483799;28;20045;-80
2021/12/15 14:33:22;;;;;;;3.75;2.42;;;;;;;7.61;100.00;99743.28;10481684;28;20483;-79
2021/12/15 14:38:38;;;;;;;4.10;2.40;;;;;;;7.61;100.00;99748.66;10479514;28;20143;-78
2021/12/15 14:43:43;;;;;;;4.72;2.53;;;;;;;7.58;100.00;99749.72;10464987;28;20532;-77
2021/12/15 14:48:46;;;;;;;4.38;2.13;;;;;;;7.56;100.00;99743.63;10482566;28;20055;-78
2021/12/15 14:53:49;;;;;;;3.28;2.40;;;;;;;7.56;100.00;99738.25;10483696;28;20041;-79
2021/12/15 14:58:55;;;;;;;4.60;2.88;;;;;;;7.57;100.00;99750.69;10463837;28;20098;-78
2021/12/15 15:04:01;;;;;;;3.35;2.22;;;;;;;7.56;100.00;99759.72;10477089;28;20128;-77
2021/12/15 15:09:20;;;;;;;5.82;2.72;;;;;;;7.54;100.00;99761.63;10481792;28;20045;-77
2021/12/15 15:14:32;;;;;;;3.97;2.67;;;;;;;7.51;100.00;99756.47;10480404;28;20040;-78
2021/12/15 15:19:51;;;;;;;3.78;2.83;;;;;;;7.52;100.00;99753.72;10462688;28;20072;-78
2021/12/15 15:24:56;;;;;;;6.32;3.20;;;;;;;7.52;100.00;99763.56;10464261;28;20053;-79
2021/12/15 15:30:06;;;;;;;3.95;3.40;;;;;;;7.50;100.00;99771.72;10485771;28;20033;-79
2021/12/15 15:35:14;;;;;;;3.03;2.70;;;;;;;7.46;100.00;99774.72;10492509;28;20052;-78
2021/12/15 15:40:29;;;;;;;4.22;2.60;;;;;;;7.42;100.00;99775.91;10493832;28;20032;-81
2021/12/15 15:45:39;;;;;;;5.20;2.70;;;;;;;7.39;100.00;99777.84;10467429;28;20505;-79
2021/12/15 15:50:45;;;;;;;2.80;2.10;;;;;;;7.38;100.00;99791.34;10493248;28;20071;-78
2021/12/15 15:55:50;;;;;;;3.17;2.50;;;;;;;7.36;100.00;99786.09;10490774;28;20055;-79
2021/12/15 16:00:57;;;;;;;3.67;2.60;;;;;;;7.33;100.00;99794.34;10484364;28;20056;-78
2021/12/15 16:06:04;;;;;;;4.13;2.60;;;;;;;7.31;100.00;99798.97;10465464;28;20060;-79
2021/12/15 16:11:14;;;;;;;5.22;3.88;;;;;;;7.29;100.00;99806.25;10475855;28;20045;-81
2021/12/15 16:16:41;;;;;;;59.28;29.67;;;;;;;7.25;100.00;99802.06;10479839;28;21273;-79
2021/12/15 16:27:11;;;;;;;5.07;3.90;;;;;;;7.21;100.00;99795.22;10477197;28;20040;-79
2021/12/15 16:32:18;;;;;;;10.18;5.90;;;;;;;7.23;100.00;99795.97;10475035;28;21021;-80
2021/12/15 16:37:25;;;;;;;11.05;5.50;;;;;;;7.19;100.00;99794.44;10452155;28;20498;-81
2021/12/15 16:42:28;;;;;;;12.57;5.72;;;;;;;7.14;100.00;99793.91;10451610;28;20052;-77
2021/12/15 16:47:35;;;;;;;10.45;6.10;;;;;;;7.12;100.00;99804.72;10472925;28;20038;-77
2021/12/15 16:52:41;;;;;;;5.00;4.13;;;;;;;7.04;100.00;99807.94;10470796;28;20101;-77
2021/12/15 16:57:47;;;;;;;14.43;10.43;;;;;;;7.02;100.00;99809.84;10479911;28;20051;-80
2021/12/15 17:02:54;;;;;;;4.68;3.50;;;;;;;7.00;100.00;99816.28;10476163;28;20048;-77
2021/12/15 17:08:01;;;;;;;5.15;3.70;;;;;;;6.99;100.00;99818.13;10470218;28;20051;-79
2021/12/15 17:13:10;;;;;;;8.68;6.03;;;;;;;6.95;100.00;99827.31;10477822;28;20132;-79
2021/12/15 17:18:21;;;;;;;15.02;10.00;;;;;;;6.92;100.00;99825.72;10478509;28;20049;-79
2021/12/15 17:23:28;;;;;;;8.67;5.83;;;;;;;6.89;100.00;99830.41;10478442;28;20123;-81
2021/12/15 17:28:34;;;;;;;7.75;5.35;;;;;;;6.87;100.00;99837.69;10458720;28;20051;-79
2021/12/15 17:33:41;;;;;;;13.73;6.65;;;;;;;6.86;100.00;99835.97;10458753;28;20040;-80
2021/12/15 17:38:49;;;;;;;13.85;5.97;;;;;;;6.85;100.00;99840.47;10473244;28;20048;-76
2021/12/15 17:43:58;;;;;;;16.30;7.70;;;;;;;6.82;100.00;99845.16;10474478;28;21229;-81
2021/12/15 17:49:12;;;;;;;13.02;7.72;;;;;;;6.82;100.00;99850.53;10469195;28;20041;-79
2021/12/15 17:54:17;;;;;;;8.15;5.93;;;;;;;6.77;100.00;99854.38;10489472;28;20622;-78
2021/12/15 17:59:20;;;;;;;7.15;5.50;;;;;;;6.77;100.00;99858.88;10472014;28;20048;-81
2021/12/15 18:04:25;;;;;;;6.18;3.92;;;;;;;6.73;100.00;99852.88;10488230;28;20044;-80
2021/12/15 18:09:30;;;;;;;4.55;3.67;;;;;;;6.73;100.00;99852.00;10486074;28;20079;-82
2021/12/15 18:14:34;;;;;;;3.88;3.40;;;;;;;6.72;100.00;99844.91;10505296;28;20052;-84
2021/12/15 18:19:42;;;;;;;5.72;3.13;;;;;;;6.69;100.00;99840.63;10485027;28;20154;-80
2021/12/15 18:24:45;;;;;;;5.55;3.03;;;;;;;6.65;100.00;99847.13;10501991;28;20105;-79
2021/12/15 18:29:53;;;;;;;5.82;3.50;;;;;;;6.63;100.00;99851.75;10485047;28;20063;-78
2021/12/15 18:34:58;;;;;;;10.63;6.00;;;;;;;6.53;100.00;99851.50;10473759;28;20047;-77
2021/12/15 18:40:04;;;;;;;8.63;6.07;;;;;;;6.53;100.00;99850.63;10470791;28;20119;-77
2021/12/15 18:45:09;;;;;;;8.52;4.47;;;;;;;6.47;100.00;99854.56;10470408;28;20045;-77
2021/12/15 18:50:18;;;;;;;5.55;4.40;;;;;;;6.43;100.00;99851.22;10466160;28;20059;-77
2021/12/15 18:55:23;;;;;;;8.38;4.95;;;;;;;6.46;100.00;99856.38;10473054;28;20489;-77
2021/12/15 19:00:30;;;;;;;5.55;4.65;;;;;;;6.46;100.00;99867.09;10477831;28;20412;-77
2021/12/15 19:05:36;;;;;;;7.30;4.88;;;;;;;6.46;100.00;99876.97;10471065;28;20060;-77
2021/12/15 19:10:40;;;;;;;5.80;4.20;;;;;;;6.41;100.00;99874.56;10479659;28;20056;-76
2021/12/15 19:15:44;;;;;;;4.80;4.00;;;;;;;6.40;100.00;99874.66;10489055;28;20045;-77
2021/12/15 19:20:50;;;;;;;5.95;4.80;;;;;;;6.35;100.00;99876.78;10489748;28;20060;-80
2021/12/15 19:25:53;;;;;;;6.45;5.15;;;;;;;6.34;100.00;99867.88;10486954;28;20045;-78
2021/12/15 19:30:59;;;;;;;7.65;6.13;;;;;;;6.33;100.00;99874.19;10488622;28;20063;-81
2021/12/15 19:36:04;;;;;;;7.35;4.97;;;;;;;6.30;100.00;99874.38;10512533;28;20482;-80
2021/12/15 19:41:09;;;;;;;5.68;4.50;;;;;;;6.27;100.00;99883.47;10475830;28;20048;-81
2021/12/15 19:46:14;;;;;;;4.97;3.88;;;;;;;6.26;100.00;99884.44;10479049;28;20472;-80
2021/12/15 19:51:23;;;;;;;5.90;4.45;;;;;;;6.26;100.00;99878.22;10506520;28;20048;-79
2021/12/15 19:56:30;;;;;;;7.40;4.80;;;;;;;6.26;100.00;99880.91;10471990;28;20048;-78
2021/12/15 20:01:37;;;;;;;5.55;4.10;;;;;;;6.25;100.00;99882.72;10473813;28;20045;-77
2021/12/15 20:06:45;;;;;;;5.53;4.13;;;;;;;6.26;100.00;99880.91;10480813;28;20048;-78
2021/12/15 20:11:50;;;;;;;5.38;4.05;;;;;;;6.23;100.00;99881.09;10484347;28;20386;-78
2021/12/15 20:16:56;;;;;;;6.38;4.57;;;;;;;6.23;100.00;99887.31;10485255;28;20075;-79
2021/12/15 20:22:04;;;;;;;6.00;4.80;;;;;;;6.23;100.00;99884.66;10458683;28;20055;-77
2021/12/15 20:27:12;;;;;;;6.32;4.13;;;;;;;6.26;100.00;99875.56;10459597;28;20059;-77
2021/12/15 20:32:17;;;;;;;5.53;4.28;;;;;;;6.23;100.00;99898.03;10476313;28;20425;-77
2021/12/15 20:37:26;;;;;;;6.15;4.30;;;;;;;6.19;100.00;99893.81;10451893;28;20044;-80
2021/12/15 20:42:29;;;;;;;7.13;4.78;;;;;;;6.19;100.00;99895.63;10471071;28;21308;-75
2021/12/15 20:47:32;;;;;;;6.70;5.35;;;;;;;6.17;100.00;99893.03;10471000;28;20040;-79
2021/12/15 20:52:38;;;;;;;6.63;5.22;;;;;;;6.16;100.00;99892.19;10469661;28;20044;-80
2021/12/15 20:57:42;;;;;;;7.10;5.45;;;;;;;6.14;100.00;99894.09;10468220;28;20040;-78
2021/12/15 21:02:45;;;;;;;6.13;4.68;;;;;;;6.14;100.00;99893.22;10452553;28;21371;-79
2021/12/15 21:07:50;;;;;;;8.75;5.10;;;;;;;6.15;100.00;99893.16;10449797;28;20707;-76
2021/12/15 21:12:54;;;;;;;6.60;5.03;;;;;;;6.14;100.00;99895.91;10470635;28;20041;-78
2021/12/15 21:17:58;;;;;;;6.90;5.40;;;;;;;6.15;100.00;99890.47;10464569;28;20071;-79
2021/12/15 21:23:03;;;;;;;6.25;4.75;;;;;;;6.16;100.00;99886.84;10471510;28;20051;-78
2021/12/15 21:28:07;;;;;;;6.65;4.90;;;;;;;6.15;100.00;99884.25;10450687;28;20682;-77
2021/12/15 21:33:10;;;;;;;7.35;4.85;;;;;;;6.14;100.00;99887.88;10467146;28;20049;-80
2021/12/15 21:38:15;;;;;;;5.45;4.40;;;;;;;6.15;100.00;99887.81;10468102;28;20052;-76
2021/12/15 21:43:19;;;;;;;7.20;4.78;;;;;;;6.14;100.00;99886.09;10467831;28;20060;-78
2021/12/15 21:48:26;;;;;;;6.45;4.93;;;;;;;6.16;100.00;99891.31;10468165;28;20052;-79
2021/12/15 21:53:30;;;;;;;6.78;5.00;;;;;;;6.16;100.00;99886.84;10453404;28;20045;-77
2021/12/15 21:58:34;;;;;;;6.28;5.03;;;;;;;6.14;100.00;99891.44;10447683;28;20062;-79
2021/12/15 22:03:40;;;;;;;7.85;4.72;;;;;;;6.14;100.00;99878.06;10446437;28;20059;-79
2021/12/15 22:08:48;;;;;;;7.65;5.47;;;;;;;6.14;100.00;99882.53;10449368;28;20064;-80
2021/12/15 22:13:53;;;;;;;6.28;4.72;;;;;;;6.13;100.00;99889.72;10450510;28;20060;-81
2021/12/15 22:18:59;;;;;;;6.45;4.97;;;;;;;6.13;100.00;99888.84;10464510;28;20048;-80
2021/12/15 22:24:08;;;;;;;6.93;4.95;;;;;;;6.15;100.00;99882.44;10449789;28;20048;-78
2021/12/15 22:29:14;;;;;;;6.70;4.60;;;;;;;6.15;100.00;99889.59;10478488;28;20052;-76
2021/12/15 22:34:18;;;;;;;7.47;5.40;;;;;;;6.13;100.00;99886.16;10499709;28;20109;-79
2021/12/15 22:39:23;;;;;;;5.60;4.53;;;;;;;6.12;100.00;99893.34;10481972;28;20083;-77
2021/12/15 22:44:26;;;;;;;7.07;5.18;;;;;;;6.11;100.00;99888.94;10498300;28;20119;-78
2021/12/15 22:49:29;;;;;;;8.15;4.90;;;;;;;6.11;100.00;99880.91;10480702;28;20130;-79
2021/12/15 22:54:34;;;;;;;7.22;4.93;;;;;;;6.10;100.00;99884.53;10453574;28;20064;-78
2021/12/15 22:59:40;;;;;;;6.88;5.07;;;;;;;6.09;100.00;99882.81;10454842;28;20052;-76
2021/12/15 23:04:44;;;;;;;5.45;4.10;;;;;;;6.07;100.00;99890.06;10472185;28;20048;-81
2021/12/15 23:09:51;;;;;;;5.28;3.80;;;;;;;6.04;100.00;99876.91;10450082;28;20057;-81
2021/12/15 23:14:57;;;;;;;5.18;3.92;;;;;;;6.03;100.00;99883.22;10452046;28;20051;-77
2021/12/15 23:20:01;;;;;;;5.90;4.45;;;;;;;6.01;100.00;99877.09;10466893;28;20044;-80
2021/12/15 23:25:08;;;;;;;6.18;4.28;;;;;;;5.98;100.00;99877.25;10446003;28;20053;-80
2021/12/15 23:30:13;;;;;;;5.68;3.70;;;;;;;5.97;100.00;99873.72;10465860;28;20136;-81
2021/12/15 23:35:38;;;;;;;5.75;4.15;;;;;;;5.96;100.00;99879.16;10447213;28;20126;-79
